Emporia, KS

1:03 PM CDT on June 02, 2015 (GMT -0500)
Timmerman School Area | | Change Station
CLOSE
Current Station
Personal Weather Station
Location: Emporia, KS
Elevation: 1214 ft
Nearby Weather Stations
Active Advisory: Flood Warning

Elev 1214 ft 38.43 °N, 96.22 °W | Updated 3 seconds ago

Partly Cloudy
Partly Cloudy
74.7 °F
Feels Like 76 °F
N
10.5
Wind Variable Wind from SE
Gusts 12.3 mph

Today
High -- | Low -- °F
--% Chance of Precip.
Yesterday
High -- | Low -- °F
Precip. -- in
6:02 AM 8:43 PM
Full, 100% visible
Pressure 30.01 in
Visibility 10.0 miles
Clouds Scattered Clouds 6000 ft
Heat Index 76 °F
Dew Point 67 °F
Humidity 76%
Rainfall 0.00 in
Snow Depth Not available.
UV 9 out of 12
Pollen 7.50 out of 12
Air Quality Not available.
Flu Activity No Activity
METAR KEMP 021653Z AUTO 13010G16KT 10SM SCT060 22/17 A3002 RMK AO2 SLP160 T02220167

More Conditions Fewer Conditions

Pressure 30.01 in
Visibility 10.0 miles
Clouds Scattered Clouds 6000 ft
Heat Index 76 °F
Dew Point 67 °F
Humidity 76%
Rainfall 0.00 in
Snow Depth Not available.
UV 9 out of 12
Pollen 7.50 out of 12
Air Quality Not available.
Flu Activity No Activity
METAR KEMP 021653Z AUTO 13010G16KT 10SM SCT060 22/17 A3002 RMK AO2 SLP160 T02220167

More Conditions Fewer Conditions

10-Day Weather Forecast

×

Almanac

Astronomy

Jun. 02, 2015 Rise Set
Actual Time
Civil Twilight
Nautical Twilight
Astronomical Twilight
Moon
Length of Visible Light
Length of Day
Tomorrow will be .
, % of the Moon is Illuminated

Today's Extremes

State Highs State Lows

Community

WunderPhotos

Upload Photos

1,825,991 photos uploaded!

WunderBlogs® & News

Nearby

Air Quality

  Air Quality AQ Index Pollutant
Not available.

Snow Depth

Station Depth Elevation

Earthquake Activity

City Distance Mag. Time & Date
Minimum magnitude displayed is 2.5.

Coastal Water Temperatures

Place Temperature

Stations

Nearby Weather Stations

Station Location Temp. Windchill Dew Point Humidity Wind Precip. Elev Updated Type
                   
Flood Warning
Statement as of 7:45 AM CDT on June 02, 2015

The Flood Warning continues for
the Neosho river near Neosho Rapids.
* Until late tonight.
* At 7:30 am Tuesday the stage was 22.1 feet.
* Flood stage is 22.0 feet.
* Minor flooding is occurring.
* Forecast... the river will continue to fall to below flood stage by
late this morning.
* Impact... at 22.0 feet... low lying areas along the river flood.


Lat... Lon 3838 9606 3842 9605 3830 9586 3826 9588